Time;durP1;ratioP1;P1;durP2;ratioP2;P2;SDS_P1;SDS_P2;PMS_P1;PMS_P2;Temp;Humidity;BMP_temperature;BMP_pressure;BME280_temperature;BME280_humidity;BME280_pressure;Samples;Min_cycle;Max_cycle;Signal;HPM_P1;HPM_P2
2022/12/19 12:35:26;;;;;;;;;;;;;;;;;;6067670;23;19921;-79
2022/12/19 12:38:06;;;;;;;;;;;;;;;;;;6073571;23;20241;-78
2022/12/19 12:40:37;;;;;;;;;;;;;;;;;;6099216;23;19914;-79
2022/12/19 12:43:21;;;;;;;;;;;;;;;;;;6099020;23;19933;-82
2022/12/19 12:45:47;;;;;;;;;;;;;;;;;;6099127;23;19921;-81
2022/12/19 12:48:18;;;;;;;;;;;;;;;;;;6073459;23;20352;-79
2022/12/19 18:07:36;;;;;;;;;;;;;;;;;;6045892;23;19948;-84
2022/12/19 18:10:01;;;;;;;;;;;;;;;;;;6098214;23;19917;-83
2022/12/19 18:12:26;;;;;;;;;;;;;;;;;;6098422;23;19914;-85
2022/12/19 18:14:52;;;;;;;;;;;;;;;;;;6071656;23;19938;-84
2022/12/19 18:17:21;;;;;;;;;;;;;;;;;;6098314;23;20270;-86
2022/12/19 18:19:47;;;;;;;;;;;;;;;;;;6098632;23;19913;-85
2022/12/19 18:22:13;;;;;;;;;;;;;;;;;;6097938;23;19964;-87
2022/12/19 18:24:38;;;;;;;;;;;;;;;;;;6098092;23;19920;-82
2022/12/19 18:27:04;;;;;;;;;;;;;;;;;;6097797;23;19969;-85
2022/12/19 18:29:29;;;;;;;;;;;;;;;;;;6098029;23;19913;-84
2022/12/19 18:31:55;;;;;;;;;;;;;;;;;;6098173;23;19913;-83
2022/12/19 18:34:22;;;;;;;;;;;;;;;;;;6098213;23;19957;-77
2022/12/19 18:36:47;;;;;;;;;;;;;;;;;;6098516;23;20298;-80
2022/12/19 18:39:20;;;;;;;;;;;;;;;;;;6098401;23;19920;-80
2022/12/19 18:41:45;;;;;;;;;;;;;;;;;;6098100;23;19961;-83
2022/12/19 18:44:11;;;;;;;;;;;;;;;;;;6097783;23;20321;-84
2022/12/19 18:46:37;;;;;;;;;;;;;;;;;;6098403;23;19913;-82
2022/12/19 18:49:03;;;;;;;;;;;;;;;;;;6098401;23;20003;-79
2022/12/19 18:51:28;;;;;;;;;;;;;;;;;;6097349;23;20318;-86
2022/12/19 18:53:53;;;;;;;;;;;;;;;;;;6097769;23;20325;-89
2022/12/19 18:56:19;;;;;;;;;;;;;;;;;;6098353;23;20076;-87
2022/12/19 18:58:44;;;;;;;;;;;;;;;;;;6097736;23;20427;-86
2022/12/19 19:01:12;;;;;;;;;;;;;;;;;;6097153;23;19996;-89
2022/12/19 19:03:38;;;;;;;;;;;;;;;;;;6098194;23;20348;-86
2022/12/19 19:06:04;;;;;;;;;;;;;;;;;;6098366;23;19942;-86
2022/12/19 19:08:31;;;;;;;;;;;;;;;;;;6097971;23;19930;-87
2022/12/19 19:10:57;;;;;;;;;;;;;;;;;;6097975;23;19914;-86
2022/12/19 19:13:24;;;;;;;;;;;;;;;;;;6097529;23;19970;-86
2022/12/19 19:16:00;;;;;;;;;;;;;;;;;;6097859;23;19914;-87
2022/12/19 19:18:30;;;;;;;;;;;;;;;;;;6097700;23;19913;-86
2022/12/19 19:20:55;;;;;;;;;;;;;;;;;;6097676;23;19914;-84
2022/12/19 19:23:23;;;;;;;;;;;;;;;;;;6097583;23;20377;-84
2022/12/19 19:25:48;;;;;;;;;;;;;;;;;;6097666;23;19913;-86
2022/12/19 19:28:14;;;;;;;;;;;;;;;;;;6097784;23;20237;-82
2022/12/19 19:30:40;;;;;;;;;;;;;;;;;;6098052;23;19924;-84
2022/12/19 19:33:12;;;;;;;;;;;;;;;;;;6097842;23;19921;-88
2022/12/19 19:35:38;;;;;;;;;;;;;;;;;;6072216;23;20317;-83
2022/12/19 19:38:05;;;;;;;;;;;;;;;;;;6071987;23;19920;-84
2022/12/19 19:40:31;;;;;;;;;;;;;;;;;;6097895;23;19914;-88
2022/12/19 19:42:57;;;;;;;;;;;;;;;;;;6099423;23;19913;-84
2022/12/19 19:45:22;;;;;;;;;;;;;;;;;;6099530;23;19920;-83
2022/12/19 19:47:47;;;;;;;;;;;;;;;;;;6099913;23;19913;-84
2022/12/19 19:50:13;;;;;;;;;;;;;;;;;;6100837;23;19945;-82
2022/12/19 19:52:39;;;;;;;;;;;;;;;;;;6074168;23;19996;-85
2022/12/19 19:55:05;;;;;;;;;;;;;;;;;;6101201;23;19913;-84
2022/12/19 19:57:30;;;;;;;;;;;;;;;;;;6100005;23;19917;-83
2022/12/19 19:59:56;;;;;;;;;;;;;;;;;;6100223;23;19961;-88
2022/12/19 20:02:21;;;;;;;;;;;;;;;;;;6101743;23;19914;-82
2022/12/19 20:05:04;;;;;;;;;;;;;;;;;;6105261;23;19913;-88
2022/12/19 20:08:04;;;;;;;;;;;;;;;;;;6072636;23;19921;-83
2022/12/19 20:10:29;;;;;;;;;;;;;;;;;;6075193;23;19918;-86
2022/12/19 20:12:55;;;;;;;;;;;;;;;;;;6070744;23;19934;-87
2022/12/19 20:15:20;;;;;;;;;;;;;;;;;;6071084;23;19913;-88
2022/12/19 20:17:45;;;;;;;;;;;;;;;;;;6096139;23;19913;-86
2022/12/19 20:20:11;;;;;;;;;;;;;;;;;;6073764;23;19913;-86
2022/12/19 20:22:36;;;;;;;;;;;;;;;;;;6099211;23;19992;-89
2022/12/19 20:25:02;;;;;;;;;;;;;;;;;;6099325;23;19913;-88
2022/12/19 20:27:27;;;;;;;;;;;;;;;;;;6099666;23;20288;-89
2022/12/19 20:29:52;;;;;;;;;;;;;;;;;;6099248;23;20344;-88
2022/12/19 20:32:18;;;;;;;;;;;;;;;;;;6099127;23;20245;-89
2022/12/19 20:34:43;;;;;;;;;;;;;;;;;;6073839;23;19921;-88
2022/12/19 20:37:08;;;;;;;;;;;;;;;;;;6099197;23;19913;-91
2022/12/19 20:39:34;;;;;;;;;;;;;;;;;;6099704;23;20322;-87
2022/12/19 20:41:59;;;;;;;;;;;;;;;;;;6099110;23;19917;-84
2022/12/19 20:44:25;;;;;;;;;;;;;;;;;;6073543;23;19968;-87
2022/12/19 20:46:50;;;;;;;;;;;;;;;;;;6098873;23;19961;-86
2022/12/19 20:49:17;;;;;;;;;;;;;;;;;;6098707;23;19924;-85
2022/12/19 20:51:43;;;;;;;;;;;;;;;;;;6098982;23;19992;-87
2022/12/19 20:54:10;;;;;;;;;;;;;;;;;;6098811;23;20333;-87
2022/12/19 20:56:35;;;;;;;;;;;;;;;;;;6099101;23;19935;-87
2022/12/19 20:59:01;;;;;;;;;;;;;;;;;;6098854;23;20330;-86
2022/12/19 21:01:26;;;;;;;;;;;;;;;;;;6076274;23;20011;-90
2022/12/19 21:03:52;;;;;;;;;;;;;;;;;;6099200;23;19957;-89
2022/12/19 21:06:18;;;;;;;;;;;;;;;;;;6046360;23;19928;-92
2022/12/19 21:08:44;;;;;;;;;;;;;;;;;;6070098;23;19918;-83
2022/12/19 21:11:10;;;;;;;;;;;;;;;;;;6070676;23;19935;-86
2022/12/19 21:13:36;;;;;;;;;;;;;;;;;;6069483;23;19970;-87
2022/12/19 21:16:05;;;;;;;;;;;;;;;;;;6069759;23;19914;-86
2022/12/19 21:18:30;;;;;;;;;;;;;;;;;;6044104;23;19992;-86
2022/12/19 21:20:56;;;;;;;;;;;;;;;;;;6069721;23;19955;-85
2022/12/19 21:23:22;;;;;;;;;;;;;;;;;;6069645;23;19909;-85
2022/12/19 21:25:48;;;;;;;;;;;;;;;;;;6069580;23;20294;-84
2022/12/19 21:28:14;;;;;;;;;;;;;;;;;;6069929;23;19910;-85
2022/12/19 21:30:39;;;;;;;;;;;;;;;;;;6069748;23;19957;-85
2022/12/19 21:33:05;;;;;;;;;;;;;;;;;;6070018;23;19993;-84
2022/12/19 21:35:32;;;;;;;;;;;;;;;;;;6069905;23;19920;-84
2022/12/19 21:37:57;;;;;;;;;;;;;;;;;;6069460;23;19943;-84
2022/12/19 21:40:23;;;;;;;;;;;;;;;;;;6069656;23;19920;-84
2022/12/19 21:42:48;;;;;;;;;;;;;;;;;;6069625;23;19915;-87
2022/12/19 21:45:14;;;;;;;;;;;;;;;;;;6043917;23;20278;-86
2022/12/19 21:47:40;;;;;;;;;;;;;;;;;;6069603;23;19992;-85
2022/12/19 21:50:06;;;;;;;;;;;;;;;;;;6069742;23;20122;-85
2022/12/19 21:52:31;;;;;;;;;;;;;;;;;;6044106;23;19914;-86
2022/12/19 21:54:57;;;;;;;;;;;;;;;;;;6044907;23;19913;-86
2022/12/19 21:57:22;;;;;;;;;;;;;;;;;;6069724;23;19913;-86
2022/12/19 21:59:48;;;;;;;;;;;;;;;;;;6069732;23;20353;-85
2022/12/19 22:02:13;;;;;;;;;;;;;;;;;;6069239;23;19914;-85
2022/12/19 22:04:38;;;;;;;;;;;;;;;;;;6069034;23;19913;-85
2022/12/19 22:07:04;;;;;;;;;;;;;;;;;;6069141;23;20234;-85
2022/12/19 22:09:29;;;;;;;;;;;;;;;;;;6069381;23;19979;-84
2022/12/19 22:11:55;;;;;;;;;;;;;;;;;;6069930;23;19914;-86
2022/12/19 22:14:20;;;;;;;;;;;;;;;;;;6069147;23;19921;-85
2022/12/19 22:16:45;;;;;;;;;;;;;;;;;;6067884;23;19914;-86
2022/12/19 22:19:12;;;;;;;;;;;;;;;;;;6069417;23;20291;-85
2022/12/19 22:21:38;;;;;;;;;;;;;;;;;;6069203;23;19914;-85
2022/12/19 22:24:03;;;;;;;;;;;;;;;;;;6069282;23;19914;-85
2022/12/19 22:26:31;;;;;;;;;;;;;;;;;;6069286;23;20009;-86
2022/12/19 22:28:57;;;;;;;;;;;;;;;;;;6069151;23;19914;-84
2022/12/19 22:31:27;;;;;;;;;;;;;;;;;;6069124;23;19952;-85
2022/12/19 22:33:54;;;;;;;;;;;;;;;;;;6069614;23;20302;-84
2022/12/19 22:36:21;;;;;;;;;;;;;;;;;;6069284;23;20159;-86
2022/12/19 22:38:46;;;;;;;;;;;;;;;;;;6068978;23;19920;-86
2022/12/19 22:41:12;;;;;;;;;;;;;;;;;;6043797;23;19918;-84
2022/12/19 22:43:37;;;;;;;;;;;;;;;;;;6069115;23;20270;-86
2022/12/19 22:46:09;;;;;;;;;;;;;;;;;;6069354;23;19924;-87
2022/12/19 22:48:34;;;;;;;;;;;;;;;;;;6069317;23;20325;-84
